Time;durP1;ratioP1;P1;durP2;ratioP2;P2;SDS_P1;SDS_P2;PMS_P1;PMS_P2;Temp;Humidity;BMP_temperature;BMP_pressure;BME280_temperature;BME280_humidity;BME280_pressure;Samples;Min_cycle;Max_cycle;Signal;HPM_P1;HPM_P2
2023/07/24 00:02:13;0.00;0.00;0.62;0.00;0.00;0.62;2.03;1.30;;;30.00;25.50;;;;;;2244630;61;20381;-63
2023/07/24 00:04:58;0.00;0.00;0.62;0.00;0.00;0.62;3.60;1.50;;;30.00;25.50;;;;;;2244159;61;20882;-63
2023/07/24 00:07:43;0.00;0.00;0.62;0.00;0.00;0.62;2.20;1.40;;;30.00;25.50;;;;;;2241203;61;20948;-66
2023/07/24 00:10:27;0.00;0.00;0.62;0.00;0.00;0.62;1.90;1.40;;;30.00;25.50;;;;;;2241158;61;20936;-63
2023/07/24 00:13:12;0.00;0.00;0.62;0.00;0.00;0.62;1.50;1.27;;;30.00;25.50;;;;;;2244243;61;20419;-64
2023/07/24 00:15:58;0.00;0.00;0.62;0.00;0.00;0.62;1.97;1.40;;;30.00;25.50;;;;;;2244416;61;20889;-62
2023/07/24 00:18:43;0.00;0.00;0.62;0.00;0.00;0.62;1.80;1.33;;;30.00;25.60;;;;;;2244034;61;20836;-63
2023/07/24 00:21:27;0.00;0.00;0.62;0.00;0.00;0.62;2.07;1.63;;;30.00;25.50;;;;;;2244176;61;20400;-63
2023/07/24 00:24:12;0.00;0.00;0.62;0.00;0.00;0.62;2.20;1.77;;;30.00;25.60;;;;;;2244402;61;20786;-63
2023/07/24 00:26:56;0.00;0.00;0.62;0.00;0.00;0.62;2.37;1.60;;;30.00;25.60;;;;;;2244276;61;20367;-63
2023/07/24 00:29:41;0.00;0.00;0.62;0.00;0.00;0.62;1.83;1.37;;;30.00;25.60;;;;;;2240467;61;20436;-63
2023/07/24 00:32:27;0.00;0.00;0.62;0.00;0.00;0.62;1.90;1.50;;;30.00;25.60;;;;;;2244561;61;20393;-62
2023/07/24 00:35:14;0.00;0.00;0.62;0.00;0.00;0.62;1.80;1.40;;;30.00;26.10;;;;;;2240839;61;20855;-63
2023/07/24 00:37:59;0.00;0.00;0.62;0.00;0.00;0.62;1.80;1.20;;;30.00;25.60;;;;;;2241349;61;20431;-63
2023/07/24 00:40:44;0.00;0.00;0.62;0.00;0.00;0.62;2.07;1.60;;;30.00;25.60;;;;;;2244368;61;20419;-65
2023/07/24 00:43:30;0.00;0.00;0.62;0.00;0.00;0.62;1.90;1.20;;;30.00;25.60;;;;;;2243732;61;20424;-67
2023/07/24 00:46:15;0.00;0.00;0.62;0.00;0.00;0.62;1.73;1.40;;;30.00;25.60;;;;;;2244421;61;20460;-64
2023/07/24 00:49:03;0.00;0.00;0.62;0.00;0.00;0.62;1.73;1.27;;;30.00;25.60;;;;;;2243712;61;20984;-65
2023/07/24 00:51:50;0.00;0.00;0.62;0.00;0.00;0.62;1.97;1.30;;;30.00;25.60;;;;;;2244400;61;20784;-64
2023/07/24 00:54:35;0.00;0.00;0.62;0.00;0.00;0.62;1.70;1.20;;;30.00;25.60;;;;;;2244429;61;20404;-62
2023/07/24 00:57:20;0.00;0.00;0.62;0.00;0.00;0.62;1.70;1.20;;;30.00;25.70;;;;;;2243931;61;20385;-64
2023/07/24 01:00:07;0.00;0.00;0.62;0.00;0.00;0.62;1.97;1.40;;;30.00;25.60;;;;;;2240649;61;20453;-60
2023/07/24 01:02:53;0.00;0.00;0.62;0.00;0.00;0.62;2.20;1.50;;;30.00;25.60;;;;;;2243812;61;20400;-61
2023/07/24 01:05:41;0.00;0.00;0.62;0.00;0.00;0.62;1.80;1.60;;;30.00;25.60;;;;;;2243815;61;20847;-62
2023/07/24 01:08:26;0.00;0.00;0.62;0.00;0.00;0.62;1.80;1.20;;;30.00;25.70;;;;;;2243963;61;20889;-61
2023/07/24 01:11:17;0.00;0.00;0.62;0.00;0.00;0.62;2.13;1.30;;;30.00;25.70;;;;;;2243998;61;20404;-61
2023/07/24 01:14:13;0.00;0.00;0.62;0.00;0.00;0.62;1.93;1.40;;;30.00;25.70;;;;;;2244255;61;20353;-62
2023/07/24 01:17:00;0.00;0.00;0.62;0.00;0.00;0.62;1.60;1.23;;;30.00;25.70;;;;;;2240985;61;20420;-63
2023/07/24 01:19:49;0.00;0.00;0.62;0.00;0.00;0.62;2.20;1.30;;;30.00;25.70;;;;;;2240316;61;20432;-63
2023/07/24 01:22:45;0.00;0.00;0.62;0.00;0.00;0.62;1.90;1.23;;;30.00;25.70;;;;;;2240831;61;20413;-63
2023/07/24 01:25:36;0.00;0.00;0.62;0.00;0.00;0.62;1.87;1.30;;;30.00;25.80;;;;;;2244100;61;20385;-63
2023/07/24 01:28:22;0.00;0.00;0.62;0.00;0.00;0.62;1.83;1.20;;;30.00;25.80;;;;;;2243191;61;20417;-63
2023/07/24 01:31:07;0.00;0.00;0.62;0.00;0.00;0.62;2.13;1.60;;;30.00;25.70;;;;;;2244188;61;20376;-63
2023/07/24 01:33:52;0.00;0.00;0.62;0.00;0.00;0.62;1.73;1.43;;;30.00;25.70;;;;;;2243831;61;20431;-62
2023/07/24 01:36:37;0.00;0.00;0.62;0.00;0.00;0.62;2.07;1.47;;;30.00;25.80;;;;;;2244096;61;20368;-63
2023/07/24 01:39:22;0.00;0.00;0.62;0.00;0.00;0.62;1.70;1.30;;;30.00;25.70;;;;;;2243584;61;21015;-61
2023/07/24 01:42:07;0.00;0.00;0.62;0.00;0.00;0.62;2.13;1.40;;;30.00;25.80;;;;;;2243822;61;20364;-62
2023/07/24 01:44:54;0.00;0.00;0.62;0.00;0.00;0.62;2.07;1.30;;;30.00;25.80;;;;;;2243870;61;20412;-63
2023/07/24 01:47:39;0.00;0.00;0.62;0.00;0.00;0.62;1.67;1.30;;;30.00;25.80;;;;;;2244126;61;20427;-61
2023/07/24 01:50:24;0.00;0.00;0.62;0.00;0.00;0.62;1.60;1.10;;;29.90;25.70;;;;;;2243351;61;20445;-64
2023/07/24 01:53:09;0.00;0.00;0.62;0.00;0.00;0.62;1.80;1.40;;;29.90;25.70;;;;;;2244341;61;20372;-67
2023/07/24 01:55:54;0.00;0.00;0.62;0.00;0.00;0.62;1.90;1.60;;;29.90;25.80;;;;;;2240589;61;20365;-64
2023/07/24 01:58:39;0.00;0.00;0.62;0.00;0.00;0.62;2.07;1.50;;;29.90;25.80;;;;;;2240490;61;20468;-64
2023/07/24 02:01:25;0.00;0.00;0.62;0.00;0.00;0.62;1.83;1.60;;;29.90;25.80;;;;;;2241031;61;20404;-63
2023/07/24 02:04:10;0.00;0.00;0.62;0.00;0.00;0.62;1.80;1.37;;;29.90;25.80;;;;;;2240656;61;20376;-64
2023/07/24 02:06:54;0.00;0.00;0.62;0.00;0.00;0.62;2.10;1.57;;;29.90;25.80;;;;;;2244130;61;20439;-62
2023/07/24 02:09:39;0.00;0.00;0.62;0.00;0.00;0.62;2.47;1.70;;;29.90;25.80;;;;;;2243667;61;20477;-64
2023/07/24 02:12:23;0.00;0.00;0.62;0.00;0.00;0.62;1.90;1.33;;;29.90;25.80;;;;;;2240246;61;20349;-64
2023/07/24 02:15:09;0.00;0.00;0.62;0.00;0.00;0.62;1.73;1.40;;;29.90;25.80;;;;;;2241022;61;20377;-64
2023/07/24 02:17:56;0.00;0.00;0.62;0.00;0.00;0.62;1.90;1.53;;;29.90;25.80;;;;;;2244158;61;20455;-63
2023/07/24 02:20:40;0.00;0.00;0.62;0.00;0.00;0.62;2.10;1.77;;;29.90;25.90;;;;;;2243716;61;20377;-64
2023/07/24 02:23:25;0.00;0.00;0.62;0.00;0.00;0.62;1.63;1.27;;;29.90;25.80;;;;;;2240695;61;20368;-63
2023/07/24 02:26:09;0.00;0.00;0.62;0.00;0.00;0.62;2.60;1.80;;;29.90;26.40;;;;;;2243550;61;20593;-62
2023/07/24 02:28:54;0.00;0.00;0.62;0.00;0.00;0.62;2.03;1.47;;;29.90;25.90;;;;;;2240202;61;20381;-62
2023/07/24 02:31:39;0.00;0.00;0.62;0.00;0.00;0.62;1.90;1.33;;;29.90;25.90;;;;;;2244270;61;20369;-63
2023/07/24 02:34:27;0.00;0.00;0.62;0.00;0.00;0.62;1.53;1.30;;;29.90;25.90;;;;;;2243522;61;20878;-63
2023/07/24 02:37:12;0.00;0.00;0.62;0.00;0.00;0.62;1.93;1.60;;;29.90;25.90;;;;;;2243843;61;20451;-63
2023/07/24 02:39:57;0.00;0.00;0.62;0.00;0.00;0.62;2.10;1.50;;;29.90;25.90;;;;;;2243504;61;20385;-66
2023/07/24 02:42:41;0.00;0.00;0.62;0.00;0.00;0.62;1.73;1.37;;;29.90;25.90;;;;;;2240335;61;20373;-64
2023/07/24 02:45:26;0.00;0.00;0.62;0.00;0.00;0.62;1.70;1.43;;;29.90;25.90;;;;;;2243820;61;20387;-63
2023/07/24 02:48:11;0.00;0.00;0.62;0.00;0.00;0.62;1.83;1.50;;;29.90;25.90;;;;;;2256077;40;20408;-63
2023/07/24 02:50:57;0.00;0.00;0.62;0.00;0.00;0.62;2.87;2.00;;;29.90;25.90;;;;;;2256086;61;20365;-62
2023/07/24 02:53:42;0.00;0.00;0.62;0.00;0.00;0.62;2.40;1.77;;;29.90;25.90;;;;;;2256000;61;20432;-62
2023/07/24 02:56:26;0.00;0.00;0.62;0.00;0.00;0.62;2.90;1.90;;;29.90;25.90;;;;;;2255662;61;20361;-63
2023/07/24 02:59:11;0.00;0.00;0.62;0.00;0.00;0.62;1.73;1.50;;;29.90;25.90;;;;;;2255411;61;20386;-62
2023/07/24 03:01:56;0.00;0.00;0.62;0.00;0.00;0.62;1.87;1.40;;;29.90;25.90;;;;;;2255883;61;20366;-63
2023/07/24 03:04:40;0.00;0.00;0.62;0.00;0.00;0.62;4.27;1.60;;;29.90;25.90;;;;;;2255476;61;20798;-62
2023/07/24 03:07:26;0.00;0.00;0.62;0.00;0.00;0.62;1.83;1.40;;;29.90;25.90;;;;;;2256298;61;20800;-62
2023/07/24 03:10:11;0.00;0.00;0.62;0.00;0.00;0.62;2.00;1.57;;;29.90;25.90;;;;;;2256094;61;20394;-62
2023/07/24 03:12:55;0.00;0.00;0.62;0.00;0.00;0.62;2.40;1.40;;;29.90;25.90;;;;;;2256316;61;20424;-62
2023/07/24 03:15:40;0.00;0.00;0.62;0.00;0.00;0.62;1.97;1.53;;;29.90;25.90;;;;;;2253286;61;20501;-61
2023/07/24 03:18:25;0.00;0.00;0.62;0.00;0.00;0.62;1.80;1.50;;;29.90;25.90;;;;;;2255428;61;20377;-61
2023/07/24 03:21:10;0.00;0.00;0.62;0.00;0.00;0.62;2.17;1.50;;;29.90;25.90;;;;;;2253270;61;20701;-63
2023/07/24 03:23:56;0.00;0.00;0.62;0.00;0.00;0.62;2.40;1.50;;;29.90;25.90;;;;;;2256438;61;20413;-62
2023/07/24 03:26:41;0.00;0.00;0.62;0.00;0.00;0.62;1.90;1.60;;;29.90;26.00;;;;;;2256402;61;20401;-63
2023/07/24 03:29:26;0.00;0.00;0.62;0.00;0.00;0.62;2.07;1.60;;;29.90;26.00;;;;;;2255974;61;20389;-62
2023/07/24 03:32:11;0.00;0.00;0.62;0.00;0.00;0.62;1.60;1.40;;;29.90;25.90;;;;;;2253304;61;20365;-62
2023/07/24 03:34:55;0.00;0.00;0.62;0.00;0.00;0.62;3.20;1.60;;;29.90;26.00;;;;;;2256305;61;20393;-63
2023/07/24 03:37:40;0.00;0.00;0.62;0.00;0.00;0.62;1.80;1.40;;;29.90;26.00;;;;;;2256239;61;20391;-67
2023/07/24 03:40:26;0.00;0.00;0.62;0.00;0.00;0.62;2.10;1.57;;;29.90;26.00;;;;;;2252486;61;20446;-65
2023/07/24 03:43:11;0.00;0.00;0.62;0.00;0.00;0.62;2.10;1.70;;;29.90;25.90;;;;;;2256221;61;20917;-63
2023/07/24 03:45:56;0.00;0.00;0.62;0.00;0.00;0.62;2.20;1.80;;;29.90;26.00;;;;;;2256260;61;20437;-63
2023/07/24 03:48:41;0.00;0.00;0.62;0.00;0.00;0.62;1.93;1.67;;;29.90;26.00;;;;;;2255383;61;20397;-63
2023/07/24 03:51:25;0.00;0.00;0.62;0.00;0.00;0.62;1.67;1.33;;;29.90;25.90;;;;;;2256376;61;20370;-63
2023/07/24 03:54:10;0.00;0.00;0.62;0.00;0.00;0.62;2.20;1.80;;;29.90;26.00;;;;;;2256369;61;20405;-63
2023/07/24 03:56:56;0.00;0.00;0.62;0.00;0.00;0.62;2.00;1.70;;;29.90;26.00;;;;;;2256311;61;20443;-63
2023/07/24 03:59:41;0.00;0.00;0.62;0.00;0.00;0.62;2.03;1.63;;;29.90;26.00;;;;;;2256011;61;20405;-63
2023/07/24 04:02:25;0.00;0.00;0.62;0.00;0.00;0.62;1.87;1.60;;;29.90;26.00;;;;;;2256035;61;20389;-63
2023/07/24 04:05:10;0.00;0.00;0.62;0.00;0.00;0.62;2.10;1.53;;;29.90;26.50;;;;;;2253163;61;20366;-62
2023/07/24 04:07:55;0.00;0.00;0.62;0.00;0.00;0.62;2.83;1.60;;;29.90;26.00;;;;;;2256295;61;20437;-63
2023/07/24 04:10:40;0.00;0.00;0.62;0.00;0.00;0.62;1.50;1.30;;;29.90;26.00;;;;;;2255921;61;20393;-64
2023/07/24 04:13:27;0.00;0.00;0.62;0.00;0.00;0.62;2.20;1.57;;;29.90;26.00;;;;;;2256197;61;20922;-63
2023/07/24 04:16:11;0.00;0.00;0.62;0.00;0.00;0.62;2.30;1.80;;;29.80;25.90;;;;;;2256533;61;20370;-67
2023/07/24 04:18:56;0.00;0.00;0.62;0.00;0.00;0.62;1.90;1.50;;;29.80;25.90;;;;;;2255265;61;20413;-63
2023/07/24 04:21:41;0.00;0.00;0.62;0.00;0.00;0.62;1.67;1.27;;;29.80;26.00;;;;;;2256364;61;20399;-63
2023/07/24 04:24:26;0.00;0.00;0.62;0.00;0.00;0.62;2.10;1.40;;;29.80;25.90;;;;;;2255840;61;20443;-62
2023/07/24 04:27:10;0.00;0.00;0.62;0.00;0.00;0.62;2.10;1.70;;;29.90;26.00;;;;;;2255942;61;20389;-64
2023/07/24 04:29:57;0.00;0.00;0.62;0.00;0.00;0.62;1.90;1.40;;;29.80;26.00;;;;;;2255900;61;20390;-63
2023/07/24 04:32:42;0.00;0.00;0.62;0.00;0.00;0.62;1.90;1.53;;;29.80;26.00;;;;;;2255899;61;20906;-63
2023/07/24 04:35:29;0.00;0.00;0.62;0.00;0.00;0.62;2.10;1.70;;;29.90;26.00;;;;;;2256164;61;20417;-62
2023/07/24 04:38:13;0.00;0.00;0.62;0.00;0.00;0.62;3.10;1.73;;;29.90;26.00;;;;;;2256071;61;20477;-64
2023/07/24 04:41:01;0.00;0.00;0.62;0.00;0.00;0.62;2.07;1.50;;;29.80;26.10;;;;;;2255830;61;20398;-63
2023/07/24 04:43:46;0.00;0.00;0.62;0.00;0.00;0.62;2.00;1.30;;;29.90;26.10;;;;;;2256447;61;20417;-63
2023/07/24 04:46:32;0.00;0.00;0.62;0.00;0.00;0.62;2.00;1.53;;;29.80;26.00;;;;;;2255887;61;20362;-62
2023/07/24 04:49:16;0.00;0.00;0.62;0.00;0.00;0.62;2.40;1.60;;;29.80;26.00;;;;;;2255424;61;20678;-63
2023/07/24 04:52:01;0.00;0.00;0.62;0.00;0.00;0.62;2.00;1.63;;;29.80;26.00;;;;;;2256335;61;20365;-63
2023/07/24 04:54:46;0.00;0.00;0.62;0.00;0.00;0.62;2.40;1.80;;;29.80;26.00;;;;;;2255882;61;20669;-63
2023/07/24 04:57:31;0.00;0.00;0.62;0.00;0.00;0.62;2.17;1.70;;;29.80;26.10;;;;;;2256211;61;20386;-63
2023/07/24 05:00:16;0.00;0.00;0.62;0.00;0.00;0.62;2.00;1.43;;;29.80;26.10;;;;;;2256010;61;20925;-63
2023/07/24 05:03:02;0.00;0.00;0.62;0.00;0.00;0.62;2.30;1.60;;;29.90;26.10;;;;;;2255558;61;20370;-63
2023/07/24 05:05:53;0.00;0.00;0.62;0.00;0.00;0.62;2.10;1.50;;;29.90;26.10;;;;;;2256129;61;20376;-63
2023/07/24 05:08:38;0.00;0.00;0.62;0.00;0.00;0.62;1.80;1.57;;;29.80;26.10;;;;;;2255478;61;20393;-67
2023/07/24 05:11:22;0.00;0.00;0.62;0.00;0.00;0.62;3.17;1.80;;;29.90;26.10;;;;;;2256056;61;20486;-63
2023/07/24 05:14:07;0.00;0.00;0.62;0.00;0.00;0.62;2.23;1.70;;;29.80;26.10;;;;;;2256219;61;20933;-63
2023/07/24 05:16:52;0.00;0.00;0.62;0.00;0.00;0.62;2.23;1.73;;;29.80;26.10;;;;;;2255958;61;20925;-63
2023/07/24 05:19:39;0.00;0.00;0.62;0.00;0.00;0.62;2.07;1.67;;;29.80;26.10;;;;;;2255626;61;20384;-63
2023/07/24 05:22:23;0.00;0.00;0.62;0.00;0.00;0.62;2.23;1.70;;;29.90;26.20;;;;;;2256021;61;20366;-63
2023/07/24 05:25:09;0.00;0.00;0.62;0.00;0.00;0.62;1.90;1.30;;;29.80;26.10;;;;;;2255689;61;20366;-63
2023/07/24 05:27:53;0.00;0.00;0.62;0.00;0.00;0.62;2.20;1.73;;;29.90;26.10;;;;;;2341138;40;20428;-63
2023/07/24 05:30:38;0.00;0.00;0.62;0.00;0.00;0.62;1.83;1.50;;;29.80;26.10;;;;;;2255461;61;20931;-63
2023/07/24 05:33:23;0.00;0.00;0.62;0.00;0.00;0.62;3.40;1.60;;;29.80;26.10;;;;;;2256108;61;20412;-62
2023/07/24 05:36:09;0.00;0.00;0.62;0.00;0.00;0.62;2.00;1.70;;;29.80;26.10;;;;;;2256122;61;20369;-64
2023/07/24 05:38:53;0.00;0.00;0.62;0.00;0.00;0.62;3.70;1.67;;;29.90;26.20;;;;;;2259198;61;20442;-63
2023/07/24 05:41:38;0.00;0.00;0.62;0.00;0.00;0.62;2.00;1.50;;;29.80;26.10;;;;;;2259969;61;20437;-63
2023/07/24 05:44:22;0.00;0.00;0.62;0.00;0.00;0.62;2.43;1.63;;;29.80;26.10;;;;;;2260218;61;20369;-64
2023/07/24 05:47:07;0.00;0.00;0.62;0.00;0.00;0.62;1.83;1.30;;;29.80;26.20;;;;;;2259402;61;20447;-63
2023/07/24 05:49:52;0.00;0.00;0.62;0.00;0.00;0.62;2.23;1.40;;;29.90;26.70;;;;;;2259646;61;20400;-63
2023/07/24 05:52:38;0.00;0.00;0.62;0.00;0.00;0.62;3.00;1.50;;;29.90;26.20;;;;;;2260228;61;20908;-63
2023/07/24 05:55:23;0.00;0.00;0.62;0.00;0.00;0.62;1.87;1.53;;;29.90;26.20;;;;;;2260027;61;20444;-63
2023/07/24 05:58:07;0.00;0.00;0.62;0.00;0.00;0.62;2.50;1.60;;;29.90;26.20;;;;;;2259947;61;20431;-64
2023/07/24 06:00:53;0.00;0.00;0.62;0.00;0.00;0.62;1.93;1.60;;;29.90;26.20;;;;;;2259786;61;20436;-64
2023/07/24 06:03:40;0.00;0.00;0.62;0.00;0.00;0.62;2.30;1.80;;;29.90;26.20;;;;;;2260049;61;20365;-65
2023/07/24 06:06:25;0.00;0.00;0.62;0.00;0.00;0.62;2.40;1.83;;;29.90;26.20;;;;;;2260097;61;20400;-63
2023/07/24 06:09:12;0.00;0.00;0.62;0.00;0.00;0.62;2.20;1.67;;;29.80;26.20;;;;;;2259119;61;20824;-64
2023/07/24 06:11:56;0.00;0.00;0.62;0.00;0.00;0.62;2.23;1.80;;;29.80;26.20;;;;;;2260198;61;20416;-63
2023/07/24 06:14:41;0.00;0.00;0.62;0.00;0.00;0.62;2.43;2.10;;;29.90;26.20;;;;;;2260184;61;20423;-63
2023/07/24 06:17:26;0.00;0.00;0.62;0.00;0.00;0.62;2.10;1.67;;;29.90;26.20;;;;;;2260007;61;20380;-63
2023/07/24 06:20:11;0.00;0.00;0.62;0.00;0.00;0.62;2.07;1.77;;;29.90;26.20;;;;;;2259345;61;20868;-64
2023/07/24 06:22:56;0.00;0.00;0.62;0.00;0.00;0.62;2.10;1.70;;;29.90;26.20;;;;;;2259853;61;20360;-63
2023/07/24 06:25:42;0.00;0.00;0.62;0.00;0.00;0.62;2.63;1.87;;;29.90;26.20;;;;;;2259967;61;20889;-61
2023/07/24 06:28:28;0.00;0.00;0.62;0.00;0.00;0.62;2.10;1.60;;;29.90;26.20;;;;;;2259378;61;20439;-63
2023/07/24 06:31:13;0.00;0.00;0.62;0.00;0.00;0.62;3.63;2.10;;;29.90;26.20;;;;;;2259659;61;20388;-63
2023/07/24 06:33:58;0.00;0.00;0.62;0.00;0.00;0.62;2.83;2.20;;;29.90;26.20;;;;;;2260083;61;20360;-63
2023/07/24 06:36:43;0.00;0.00;0.62;0.00;0.00;0.62;2.80;2.00;;;29.90;26.20;;;;;;2259361;61;20773;-63
2023/07/24 06:39:28;0.00;0.00;0.62;0.00;0.00;0.62;2.50;2.10;;;29.90;26.20;;;;;;2259183;61;20385;-63
2023/07/24 06:42:14;0.00;0.00;0.62;0.00;0.00;0.62;2.27;1.70;;;29.90;26.20;;;;;;2260281;61;20368;-63
2023/07/24 06:44:59;0.00;0.00;0.62;0.00;0.00;0.62;2.37;1.93;;;29.90;26.20;;;;;;2260228;61;20885;-63
2023/07/24 06:50:27;0.00;0.00;0.62;0.00;0.00;0.62;2.70;2.20;;;29.90;26.20;;;;;;2257976;61;20382;-63
2023/07/24 06:53:12;0.00;0.00;0.62;0.00;0.00;0.62;2.37;1.70;;;29.90;26.30;;;;;;2256490;61;20390;-63
2023/07/24 06:55:56;0.00;0.00;0.62;0.00;0.00;0.62;2.17;1.83;;;29.90;26.20;;;;;;2256733;61;20389;-63
2023/07/24 06:58:42;0.00;0.00;0.62;0.00;0.00;0.62;4.07;2.20;;;29.90;26.30;;;;;;2259844;61;20381;-63
2023/07/24 07:01:27;0.00;0.00;0.62;0.00;0.00;0.62;2.93;1.93;;;29.90;26.30;;;;;;2260351;61;20369;-63
2023/07/24 07:04:12;0.00;0.00;0.62;0.00;0.00;0.62;2.50;1.60;;;29.90;26.30;;;;;;2260666;61;20448;-63
2023/07/24 07:06:56;0.00;0.00;0.62;0.00;0.00;0.62;2.50;1.93;;;29.90;26.30;;;;;;2257106;61;20364;-64
2023/07/24 07:09:41;0.00;0.00;0.62;0.00;0.00;0.62;2.60;1.80;;;29.90;26.30;;;;;;2259841;61;20479;-63
2023/07/24 07:12:26;0.00;0.00;0.62;0.00;0.00;0.62;2.50;1.93;;;29.90;26.30;;;;;;2260695;61;20361;-63
2023/07/24 07:15:12;0.00;0.00;0.62;0.00;0.00;0.62;2.27;1.93;;;29.90;26.30;;;;;;2260371;61;20889;-63
2023/07/24 07:17:57;0.00;0.00;0.62;0.00;0.00;0.62;2.07;1.73;;;29.90;26.30;;;;;;2260450;61;20431;-64
2023/07/24 07:20:45;0.00;0.00;0.62;0.00;0.00;0.62;2.10;1.70;;;29.90;26.30;;;;;;2260660;61;20742;-64
2023/07/24 07:23:30;0.00;0.00;0.62;0.00;0.00;0.62;2.37;1.83;;;29.90;26.40;;;;;;2259902;61;20385;-63
2023/07/24 07:26:14;0.00;0.00;0.62;0.00;0.00;0.62;2.73;2.43;;;29.90;26.30;;;;;;2260618;61;20393;-64
2023/07/24 07:28:59;0.00;0.00;0.62;0.00;0.00;0.62;2.50;2.00;;;29.90;26.30;;;;;;2294644;40;20430;-64
2023/07/24 07:31:46;0.00;0.00;0.62;0.00;0.00;0.62;2.73;2.03;;;29.90;26.30;;;;;;2269741;61;20382;-64
2023/07/24 07:34:30;0.00;0.00;0.62;0.00;0.00;0.62;3.10;2.10;;;29.90;26.30;;;;;;2268714;61;20359;-64
2023/07/24 07:37:15;0.00;0.00;0.62;0.00;0.00;0.62;2.57;2.13;;;29.90;26.90;;;;;;2264757;61;20394;-64
2023/07/24 07:39:59;0.00;0.00;0.62;0.00;0.00;0.62;2.50;2.00;;;29.90;26.30;;;;;;2264777;61;20440;-64
2023/07/24 07:42:45;0.00;0.00;0.62;0.00;0.00;0.62;2.57;2.10;;;29.90;26.40;;;;;;2265278;61;20355;-63
2023/07/24 07:45:29;0.00;0.00;0.62;0.00;0.00;0.62;3.40;2.17;;;29.90;26.40;;;;;;2264756;61;20778;-63
2023/07/24 07:48:15;0.00;0.00;0.62;0.00;0.00;0.62;2.73;2.47;;;29.90;26.40;;;;;;2264876;61;20375;-64
2023/07/24 07:51:00;0.00;0.00;0.62;0.00;0.00;0.62;3.47;2.97;;;29.90;26.40;;;;;;2268311;61;20941;-64
2023/07/24 07:53:45;0.00;0.00;0.62;0.00;0.00;0.62;3.03;2.60;;;29.90;26.40;;;;;;2268235;61;20401;-66
2023/07/24 07:56:29;0.00;0.00;0.62;0.00;0.00;0.62;3.00;2.70;;;29.90;26.40;;;;;;2268488;61;20455;-63
2023/07/24 07:59:14;0.00;0.00;0.62;0.00;0.00;0.62;3.37;3.07;;;29.90;26.40;;;;;;2267667;61;20397;-63
2023/07/24 08:01:59;0.00;0.00;0.62;0.00;0.00;0.62;3.40;2.57;;;29.90;26.40;;;;;;2268461;61;20406;-63
2023/07/24 08:04:45;0.00;0.00;0.62;0.00;0.00;0.62;3.60;3.00;;;29.90;26.40;;;;;;2268612;61;20409;-63
2023/07/24 08:07:31;0.00;0.00;0.62;0.00;0.00;0.62;3.00;2.70;;;29.90;26.40;;;;;;2268057;61;20383;-63
2023/07/24 08:10:16;0.00;0.00;0.62;0.00;0.00;0.62;3.73;2.83;;;29.90;26.40;;;;;;2268344;61;21082;-62
2023/07/24 08:13:01;0.00;0.00;0.62;0.00;0.00;0.62;4.40;4.00;;;29.90;26.40;;;;;;2268392;61;20359;-64
2023/07/24 08:15:46;0.00;0.00;0.62;0.00;0.00;0.62;3.63;2.60;;;29.90;26.40;;;;;;2265011;61;20394;-62
2023/07/24 08:18:30;0.00;0.00;0.62;0.00;0.00;0.62;4.17;3.40;;;29.90;26.40;;;;;;2268261;61;20380;-63
2023/07/24 08:21:17;0.00;0.00;0.62;0.00;0.00;0.62;3.70;3.30;;;29.90;26.40;;;;;;2268175;61;20432;-67
2023/07/24 08:24:02;0.00;0.00;0.62;0.00;0.00;0.62;3.73;3.10;;;29.90;26.40;;;;;;2268290;61;20363;-64
2023/07/24 08:26:47;0.00;0.00;0.62;0.00;0.00;0.62;4.27;3.27;;;29.90;26.40;;;;;;2268391;61;20811;-63
2023/07/24 08:29:33;0.00;0.00;0.62;0.00;0.00;0.62;4.63;3.83;;;29.90;26.40;;;;;;2267716;61;20383;-64
2023/07/24 08:32:18;0.00;0.00;0.62;0.00;0.00;0.62;4.80;3.70;;;29.90;26.40;;;;;;2268245;61;20903;-63
2023/07/24 08:35:03;0.00;0.00;0.62;0.00;0.00;0.62;3.97;3.57;;;29.90;26.40;;;;;;2268623;61;20444;-62
2023/07/24 08:37:49;0.00;0.00;0.62;0.00;0.00;0.62;4.10;3.47;;;29.90;26.40;;;;;;2268062;61;20440;-63
2023/07/24 08:40:34;0.00;0.00;0.62;0.00;0.00;0.62;5.60;2.80;;;29.90;26.50;;;;;;2268074;61;20375;-63
2023/07/24 08:43:19;0.00;0.00;0.62;0.00;0.00;0.62;3.70;3.20;;;29.90;26.50;;;;;;2264827;61;20363;-63
2023/07/24 08:46:05;0.00;0.00;0.62;0.00;0.00;0.62;4.13;3.73;;;29.90;26.50;;;;;;2268176;61;20701;-63
2023/07/24 08:48:51;0.00;0.00;0.62;0.00;0.00;0.62;3.90;3.23;;;29.90;26.50;;;;;;2267701;61;20782;-63
2023/07/24 08:51:36;0.00;0.00;0.62;0.00;0.00;0.62;4.63;4.00;;;29.90;26.50;;;;;;2268136;61;20410;-63
2023/07/24 08:54:25;0.00;0.00;0.62;0.00;0.00;0.62;4.17;3.77;;;29.90;26.60;;;;;;2268344;61;20753;-62
2023/07/24 08:57:11;0.00;0.00;0.62;0.00;0.00;0.62;4.50;3.57;;;29.90;26.60;;;;;;2268336;61;20791;-64
2023/07/24 08:59:56;0.00;0.00;0.62;0.00;0.00;0.62;4.80;4.03;;;29.90;26.70;;;;;;2267740;61;20351;-63
2023/07/24 09:02:41;0.00;0.00;0.62;0.00;0.00;0.62;5.97;4.40;;;29.90;26.70;;;;;;2268110;61;20359;-63
2023/07/24 09:05:26;0.00;0.00;0.62;0.00;0.00;0.62;4.00;3.60;;;29.90;26.70;;;;;;2267911;61;20409;-62
2023/07/24 09:08:11;0.00;0.00;0.62;0.00;0.00;0.62;4.83;3.80;;;29.90;26.80;;;;;;2268000;61;20379;-63
2023/07/24 09:10:57;0.00;0.00;0.62;0.00;0.00;0.62;4.27;3.63;;;29.90;26.80;;;;;;2265131;61;20379;-63
2023/07/24 09:13:43;0.00;0.00;0.62;0.00;0.00;0.62;4.17;3.53;;;29.90;26.80;;;;;;2268131;61;20405;-62
2023/07/24 09:16:28;0.00;0.00;0.62;0.00;0.00;0.62;4.20;3.80;;;29.90;26.80;;;;;;2265009;61;20377;-64
2023/07/24 09:19:18;0.00;0.00;0.62;0.00;0.00;0.62;3.67;3.37;;;29.90;26.80;;;;;;2267976;61;20783;-63
2023/07/24 09:22:11;0.00;0.00;0.62;0.00;0.00;0.62;3.87;3.13;;;30.00;26.90;;;;;;2267902;61;20822;-63
2023/07/24 09:24:57;0.00;0.00;0.62;0.00;0.00;0.62;3.43;3.10;;;30.00;26.90;;;;;;2268210;61;20420;-63
2023/07/24 09:27:44;0.00;0.00;0.62;0.00;0.00;0.62;4.43;3.50;;;30.00;26.90;;;;;;2267788;61;20464;-62
2023/07/24 09:30:29;0.00;0.00;0.62;0.00;0.00;0.62;3.70;3.30;;;30.00;27.00;;;;;;2267679;61;20430;-63
2023/07/24 09:33:14;0.00;0.00;0.62;0.00;0.00;0.62;4.20;3.27;;;30.00;27.00;;;;;;2268291;61;20390;-62
2023/07/24 09:36:00;0.00;0.00;0.62;0.00;0.00;0.62;4.30;3.80;;;30.00;27.00;;;;;;2264826;61;20362;-63
2023/07/24 09:38:45;0.00;0.00;0.62;0.00;0.00;0.62;3.83;3.40;;;30.00;27.00;;;;;;2267662;61;20417;-64
2023/07/24 09:41:30;0.00;0.00;0.62;0.00;0.00;0.62;3.73;3.13;;;30.00;27.00;;;;;;2268228;61;20359;-62
2023/07/24 09:44:16;0.00;0.00;0.62;0.00;0.00;0.62;3.23;2.90;;;30.00;27.00;;;;;;2267591;61;20400;-62
2023/07/24 09:47:01;0.00;0.00;0.62;0.00;0.00;0.62;4.00;3.13;;;30.00;27.00;;;;;;2268309;61;20367;-62
2023/07/24 09:49:47;0.00;0.00;0.62;0.00;0.00;0.62;3.07;2.63;;;30.00;27.10;;;;;;2267525;61;20383;-63
2023/07/24 09:52:33;0.00;0.00;0.62;0.00;0.00;0.62;3.33;3.03;;;30.00;27.10;;;;;;2268099;61;20442;-63
2023/07/24 09:55:25;0.00;0.00;0.62;0.00;0.00;0.62;3.00;2.43;;;30.00;27.10;;;;;;2268303;61;20359;-63
2023/07/24 09:58:11;0.00;0.00;0.62;0.00;0.00;0.62;3.13;2.80;;;30.00;27.20;;;;;;2267766;61;20468;-63
2023/07/24 10:00:58;0.00;0.00;0.62;0.00;0.00;0.62;3.60;3.20;;;30.00;27.20;;;;;;2265025;61;20352;-63
2023/07/24 10:03:47;0.00;0.00;0.62;0.00;0.00;0.62;4.00;3.07;;;30.00;27.20;;;;;;2268059;61;20432;-63
2023/07/24 10:06:33;0.00;0.00;0.62;0.00;0.00;0.62;3.67;2.70;;;30.00;27.20;;;;;;2267544;61;20832;-62
2023/07/24 10:09:21;0.00;0.00;0.62;0.00;0.00;0.62;3.43;2.77;;;30.00;27.20;;;;;;2267626;61;20935;-63
2023/07/24 10:12:08;0.00;0.00;0.62;0.00;0.00;0.62;3.20;2.70;;;30.00;27.20;;;;;;2267781;61;20382;-63
2023/07/24 10:14:56;0.00;0.00;0.62;0.00;0.00;0.62;3.20;2.90;;;30.00;27.30;;;;;;2268249;61;20382;-64
2023/07/24 10:17:42;0.00;0.00;0.62;0.00;0.00;0.62;3.30;3.00;;;30.00;27.30;;;;;;2268523;61;20923;-63
2023/07/24 10:20:34;0.00;0.00;0.62;0.00;0.00;0.62;3.53;3.23;;;30.10;27.30;;;;;;2268384;61;20367;-62
2023/07/24 10:23:19;0.00;0.00;0.62;0.00;0.00;0.62;3.40;3.10;;;30.10;27.30;;;;;;2269038;61;20393;-61
2023/07/24 10:26:06;0.00;0.00;0.62;0.00;0.00;0.62;5.10;2.73;;;30.10;27.40;;;;;;2268772;61;20382;-63
2023/07/24 10:28:51;0.00;0.00;0.62;0.00;0.00;0.62;3.10;2.80;;;30.10;27.40;;;;;;2268014;61;20930;-63
2023/07/24 10:31:36;0.00;0.00;0.62;0.00;0.00;0.62;3.30;2.90;;;30.10;27.40;;;;;;2269162;61;20497;-61
2023/07/24 10:34:22;0.00;0.00;0.62;0.00;0.00;0.62;3.30;2.90;;;30.10;27.40;;;;;;2267126;61;20919;-63
2023/07/24 10:37:11;0.00;0.00;0.62;0.00;0.00;0.62;3.50;3.17;;;30.10;27.40;;;;;;2268776;61;20454;-63
2023/07/24 10:39:56;0.00;0.00;0.62;0.00;0.00;0.62;4.70;2.70;;;30.10;27.40;;;;;;2265089;61;20409;-63
2023/07/24 10:42:40;0.00;0.00;0.62;0.00;0.00;0.62;2.93;2.63;;;30.10;27.40;;;;;;2268252;61;20363;-62
2023/07/24 10:45:26;0.00;0.00;0.62;0.00;0.00;0.62;2.97;2.40;;;30.10;27.50;;;;;;2268945;61;20389;-62
2023/07/24 10:48:11;0.00;0.00;0.62;0.00;0.00;0.62;3.37;3.07;;;30.10;27.50;;;;;;2268492;61;20378;-63
2023/07/24 10:50:57;0.00;0.00;0.62;0.00;0.00;0.62;3.00;2.70;;;30.10;27.50;;;;;;2268124;61;20849;-66
2023/07/24 10:53:46;0.00;0.00;0.62;0.00;0.00;0.62;3.07;2.77;;;30.20;27.70;;;;;;2268831;61;20363;-63
2023/07/24 10:56:31;0.00;0.00;0.62;0.00;0.00;0.62;3.13;2.83;;;30.20;27.60;;;;;;2265264;61;20413;-63